Time;durP1;ratioP1;P1;durP2;ratioP2;P2;SDS_P1;SDS_P2;PMS_P1;PMS_P2;Temp;Humidity;BMP_temperature;BMP_pressure;BME280_temperature;BME280_humidity;BME280_pressure;Samples;Min_cycle;Max_cycle;Signal;HPM_P1;HPM_P2
2023/10/06 00:00:46;;;;;;;12.68;6.25;;;;;;;11.80;98.20;102296.22;5084575;28;20047;-78
2023/10/06 00:03:16;;;;;;;9.48;6.15;;;;;;;11.81;98.14;102287.09;5088522;28;20036;-78
2023/10/06 00:05:41;;;;;;;10.00;6.20;;;;;;;11.79;98.45;102291.81;5081836;28;20032;-78
2023/10/06 00:08:31;;;;;;;9.38;6.20;;;;;;;11.72;98.69;102286.28;5085968;28;20092;-78
2023/10/06 00:11:10;;;;;;;10.30;6.32;;;;;;;11.68;99.05;102291.13;5080172;28;20044;-78
2023/10/06 00:13:37;;;;;;;12.35;6.25;;;;;;;11.67;99.44;102294.00;5092954;28;20036;-78
2023/10/06 00:16:05;;;;;;;8.77;6.03;;;;;;;11.61;99.22;102290.16;5082761;28;20097;-78
2023/10/06 00:18:36;;;;;;;9.85;6.90;;;;;;;11.59;99.77;102292.16;5072553;28;20020;-78
2023/10/06 00:21:15;;;;;;;9.48;5.90;;;;;;;11.54;100.00;102289.13;5069562;28;21225;-78
2023/10/06 00:23:44;;;;;;;10.25;6.30;;;;;;;11.49;100.00;102277.97;5069463;28;20024;-78
2023/10/06 00:26:18;;;;;;;9.77;6.63;;;;;;;11.47;100.00;102277.34;5027609;28;20059;-78
2023/10/06 00:28:44;;;;;;;12.00;6.75;;;;;;;11.48;100.00;102282.53;5061650;28;20037;-78
2023/10/06 00:31:11;;;;;;;11.48;6.38;;;;;;;11.42;100.00;102280.50;5070721;28;20043;-77
2023/10/06 00:33:42;;;;;;;10.25;6.43;;;;;;;11.43;100.00;102278.66;5070785;28;20027;-77
2023/10/06 00:36:14;;;;;;;12.05;7.18;;;;;;;11.42;100.00;102285.06;5052854;28;20147;-77
2023/10/06 00:38:47;;;;;;;10.95;6.72;;;;;;;11.35;100.00;102284.91;5070387;28;20041;-77
2023/10/06 00:41:15;;;;;;;10.15;6.47;;;;;;;11.34;100.00;102278.66;5067920;28;20154;-77
2023/10/06 00:43:45;;;;;;;10.45;6.70;;;;;;;11.34;100.00;102270.56;5072423;28;20031;-77
2023/10/06 00:46:14;;;;;;;8.90;6.43;;;;;;;11.29;100.00;102272.94;5072525;28;20027;-77
2023/10/06 00:48:44;;;;;;;13.15;6.40;;;;;;;11.33;100.00;102270.75;5053768;28;20431;-77
2023/10/06 00:51:19;;;;;;;8.65;6.20;;;;;;;11.29;100.00;102272.94;5073497;28;20040;-77
2023/10/06 00:53:44;;;;;;;9.98;6.78;;;;;;;11.30;100.00;102269.19;5071860;28;20032;-77
2023/10/06 00:56:15;;;;;;;10.00;6.40;;;;;;;11.32;100.00;102258.25;5051108;28;20480;-77
2023/10/06 00:58:41;;;;;;;11.65;6.78;;;;;;;11.30;100.00;102258.41;5072867;28;20557;-77
2023/10/06 01:01:13;;;;;;;11.00;6.50;;;;;;;11.21;100.00;102265.66;5081191;28;20020;-77
2023/10/06 01:03:42;;;;;;;12.45;6.57;;;;;;;11.27;100.00;102260.63;5072325;28;20044;-77
2023/10/06 01:06:17;;;;;;;8.55;6.20;;;;;;;11.27;100.00;102255.22;5068202;28;20096;-77
2023/10/06 01:08:48;;;;;;;10.70;6.53;;;;;;;11.26;100.00;102246.31;5072183;28;20036;-77
2023/10/06 01:11:17;;;;;;;10.02;6.80;;;;;;;11.26;100.00;102243.59;5068432;28;20054;-76
2023/10/06 01:13:53;;;;;;;11.70;7.57;;;;;;;11.27;100.00;102239.03;5070492;28;20024;-76
2023/10/06 01:16:34;;;;;;;12.10;6.78;;;;;;;11.28;100.00;102236.19;5104181;28;20059;-75
2023/10/06 01:21:49;;;;;;;8.95;5.88;;;;;;;11.25;100.00;102233.84;5089289;28;20102;-76
2023/10/06 01:24:15;;;;;;;8.93;6.03;;;;;;;11.24;100.00;102234.84;5099609;28;20090;-76
2023/10/06 01:26:41;;;;;;;10.15;6.45;;;;;;;11.25;100.00;102231.13;5091742;28;20027;-76
2023/10/06 01:29:10;;;;;;;9.48;6.20;;;;;;;11.22;100.00;102243.06;5098666;28;20077;-76
2023/10/06 01:31:40;;;;;;;8.45;6.07;;;;;;;11.28;100.00;102235.34;5103141;28;20073;-76
2023/10/06 01:34:08;;;;;;;7.63;5.93;;;;;;;11.25;100.00;102228.44;5112222;28;20032;-76
2023/10/06 01:36:39;;;;;;;10.38;6.40;;;;;;;11.20;100.00;102238.88;5096149;28;20026;-76
2023/10/06 01:39:05;;;;;;;7.85;6.50;;;;;;;11.23;100.00;102233.16;5095324;28;20040;-76
2023/10/06 01:41:37;;;;;;;9.35;6.10;;;;;;;11.13;100.00;102232.44;5098031;28;20099;-75
2023/10/06 01:44:10;;;;;;;9.43;6.05;;;;;;;11.19;100.00;102216.47;5104752;28;20024;-76
2023/10/06 01:46:37;;;;;;;8.88;6.15;;;;;;;11.18;100.00;102227.41;5076658;28;20034;-76
2023/10/06 01:49:04;;;;;;;9.00;6.22;;;;;;;11.17;100.00;102229.28;5096890;28;20104;-76
2023/10/06 01:51:38;;;;;;;10.57;6.30;;;;;;;11.13;100.00;102221.66;5088108;28;20051;-77
2023/10/06 01:54:07;;;;;;;10.27;6.20;;;;;;;11.11;100.00;102219.16;5093168;28;20028;-76
2023/10/06 01:56:35;;;;;;;9.00;6.00;;;;;;;11.11;100.00;102213.75;5089938;28;20024;-76
2023/10/06 01:59:01;;;;;;;8.77;5.90;;;;;;;11.11;100.00;102210.25;5091128;28;20070;-76
2023/10/06 02:01:27;;;;;;;14.43;6.07;;;;;;;11.07;100.00;102202.47;5093213;28;20028;-76
2023/10/06 02:03:54;;;;;;;9.80;5.80;;;;;;;11.04;100.00;102201.94;5089738;28;20127;-76
2023/10/06 02:06:19;;;;;;;10.40;6.32;;;;;;;11.03;100.00;102208.38;5091417;28;20103;-76
2023/10/06 02:08:50;;;;;;;11.13;6.55;;;;;;;11.03;100.00;102205.69;5084760;28;20047;-75
2023/10/06 02:11:16;;;;;;;10.20;5.70;;;;;;;11.00;100.00;102216.78;5093912;28;20466;-76
2023/10/06 02:13:42;;;;;;;9.77;6.10;;;;;;;10.91;100.00;102218.63;5093834;28;20032;-76
2023/10/06 02:16:09;;;;;;;8.07;6.07;;;;;;;10.93;100.00;102211.22;5091615;28;20098;-78
2023/10/06 02:18:37;;;;;;;11.48;6.18;;;;;;;10.93;100.00;102213.91;5074055;28;20484;-78
2023/10/06 02:23:41;;;;;;;7.05;5.78;;;;;;;10.98;100.00;102216.94;5303840;22;20585;-78
2023/10/06 02:30:10;;;;;;;10.48;6.03;;;;;;;11.01;100.00;102219.31;5071461;28;20094;-79
2023/10/06 02:35:58;;;;;;;8.25;5.78;;;;;;;10.98;100.00;102216.94;5076201;28;20090;-79
2023/10/06 02:42:01;;;;;;;11.38;5.88;;;;;;;10.91;100.00;102219.47;5068116;28;20102;-78
2023/10/06 02:44:37;;;;;;;9.48;5.70;;;;;;;10.86;100.00;102212.88;5061224;28;20044;-76
2023/10/06 02:47:13;;;;;;;9.32;5.95;;;;;;;10.84;100.00;102212.22;5068862;28;20373;-76
2023/10/06 02:49:48;;;;;;;11.07;6.10;;;;;;;10.80;100.00;102214.41;5085113;28;20048;-77
2023/10/06 02:52:20;;;;;;;12.35;6.60;;;;;;;10.85;100.00;102209.38;5078990;28;20383;-77
2023/10/06 02:54:55;;;;;;;10.68;6.35;;;;;;;10.77;100.00;102206.63;5069179;28;20085;-77
2023/10/06 02:57:25;;;;;;;10.57;6.60;;;;;;;10.81;100.00;102207.16;5056894;28;20024;-77
2023/10/06 02:59:56;;;;;;;10.70;5.95;;;;;;;10.84;100.00;102201.44;5068787;28;20020;-77
2023/10/06 03:02:25;;;;;;;7.50;5.50;;;;;;;10.86;100.00;102204.81;5074719;28;20021;-77
2023/10/06 03:05:01;;;;;;;8.80;5.93;;;;;;;10.86;100.00;102199.41;5070886;28;20062;-77
2023/10/06 03:07:27;;;;;;;9.82;5.90;;;;;;;10.87;100.00;102193.03;5074525;28;20456;-77
2023/10/06 03:09:52;;;;;;;9.43;5.80;;;;;;;10.90;100.00;102195.38;5060277;28;20033;-78
2023/10/06 03:14:49;;;;;;;8.75;5.65;;;;;;;10.95;100.00;102198.41;5070842;28;20040;-77
2023/10/06 03:17:18;;;;;;;9.85;6.18;;;;;;;10.94;100.00;102193.19;5077399;28;20021;-77
2023/10/06 03:19:44;;;;;;;8.13;5.43;;;;;;;10.95;100.00;102187.63;5058886;28;20077;-77
2023/10/06 03:22:30;;;;;;;6.68;5.50;;;;;;;10.92;100.00;102196.91;5072952;28;20040;-77
2023/10/06 03:25:00;;;;;;;10.05;5.93;;;;;;;10.93;100.00;102189.69;5052771;28;20396;-77
2023/10/06 03:27:25;;;;;;;8.68;5.47;;;;;;;10.86;100.00;102180.56;5057478;28;20029;-77
2023/10/06 03:32:28;;;;;;;10.43;5.95;;;;;;;10.81;100.00;102190.97;5061147;28;20062;-78
2023/10/06 03:34:57;;;;;;;8.80;5.43;;;;;;;10.79;100.00;102188.47;5042131;28;20073;-77
2023/10/06 03:37:34;;;;;;;11.38;6.00;;;;;;;10.78;100.00;102184.09;5054674;28;20090;-77
2023/10/06 03:40:22;;;;;;;9.52;5.65;;;;;;;10.77;100.00;102190.47;5052123;28;20102;-77
2023/10/06 03:42:49;;;;;;;12.40;6.38;;;;;;;10.77;100.00;102185.91;5040789;28;20033;-77
2023/10/06 03:45:27;;;;;;;11.70;6.05;;;;;;;10.75;100.00;102193.34;5067333;28;20023;-77
2023/10/06 03:47:54;;;;;;;10.38;5.65;;;;;;;10.74;100.00;102175.50;5064465;28;20028;-78
2023/10/06 03:50:20;;;;;;;8.48;5.82;;;;;;;10.70;100.00;102167.88;5055454;28;20070;-77
2023/10/06 03:52:47;;;;;;;10.95;6.03;;;;;;;10.69;100.00;102171.59;5074129;28;20465;-77
2023/10/06 03:55:13;;;;;;;8.90;6.00;;;;;;;10.67;100.00;102166.38;5058395;28;20021;-77
2023/10/06 03:57:40;;;;;;;9.90;5.82;;;;;;;10.68;100.00;102165.38;5073560;28;20036;-77
2023/10/06 04:00:06;;;;;;;9.73;5.88;;;;;;;10.67;100.00;102163.69;5058968;28;20042;-77
2023/10/06 04:02:40;;;;;;;9.93;6.00;;;;;;;10.67;100.00;102150.22;5065055;28;20021;-77
2023/10/06 04:05:09;;;;;;;9.45;5.72;;;;;;;10.69;100.00;102145.50;5047850;28;20036;-76
2023/10/06 04:07:34;;;;;;;8.85;5.70;;;;;;;10.74;100.00;102147.72;5059348;28;20059;-77
2023/10/06 04:10:03;;;;;;;9.18;6.00;;;;;;;10.76;100.00;102151.94;5061914;28;20030;-77
2023/10/06 04:12:30;;;;;;;9.32;5.70;;;;;;;10.72;100.00;102150.56;5060968;28;20028;-76
2023/10/06 04:14:55;;;;;;;9.63;5.95;;;;;;;10.74;100.00;102143.19;5060729;28;20036;-77
2023/10/06 04:17:22;;;;;;;10.55;5.80;;;;;;;10.73;100.00;102136.09;5072440;28;20032;-76
2023/10/06 04:19:49;;;;;;;9.75;5.72;;;;;;;10.74;100.00;102142.31;5053504;28;20021;-77
2023/10/06 04:22:14;;;;;;;11.30;5.22;;;;;;;10.76;100.00;102146.56;5055864;28;20492;-77
2023/10/06 04:24:40;;;;;;;9.90;6.10;;;;;;;10.77;100.00;102142.81;5053406;28;20066;-77
2023/10/06 04:27:05;;;;;;;8.90;5.88;;;;;;;10.79;100.00;102144.50;5058156;28;20029;-77
2023/10/06 04:29:35;;;;;;;7.80;5.72;;;;;;;10.74;100.00;102145.88;5072002;28;20025;-76
2023/10/06 04:32:01;;;;;;;10.57;5.53;;;;;;;10.74;100.00;102147.72;5046170;28;20029;-76
2023/10/06 04:34:33;;;;;;;9.80;5.63;;;;;;;10.70;100.00;102155.28;5055499;28;20052;-77
2023/10/06 04:37:00;;;;;;;10.60;5.63;;;;;;;10.70;100.00;102149.03;5080134;22;20084;-77
2023/10/06 04:39:26;;;;;;;9.52;5.55;;;;;;;10.64;100.00;102139.78;5073926;28;20032;-76
2023/10/06 04:41:53;;;;;;;11.20;5.70;;;;;;;10.63;100.00;102146.16;5073047;28;20044;-77
2023/10/06 04:44:18;;;;;;;8.05;5.50;;;;;;;10.64;100.00;102141.66;5054828;28;20033;-77
2023/10/06 04:46:43;;;;;;;6.72;5.63;;;;;;;10.64;100.00;102137.09;5070543;28;20132;-79
2023/10/06 04:49:09;;;;;;;7.85;5.18;;;;;;;10.63;100.00;102140.78;5072965;28;20380;-77
2023/10/06 04:51:34;;;;;;;10.88;5.97;;;;;;;10.61;100.00;102138.28;5072324;28;20073;-76
2023/10/06 04:54:02;;;;;;;8.43;5.70;;;;;;;10.59;100.00;102142.16;5060283;28;20024;-76
2023/10/06 04:56:32;;;;;;;9.90;5.88;;;;;;;10.57;100.00;102136.91;5072547;28;20465;-76
2023/10/06 04:58:58;;;;;;;8.38;5.40;;;;;;;10.55;100.00;102132.72;5067232;28;20016;-76
2023/10/06 05:01:28;;;;;;;9.13;5.43;;;;;;;10.45;100.00;102139.06;5074163;28;20025;-77
2023/10/06 05:03:54;;;;;;;10.23;5.70;;;;;;;10.43;100.00;102143.75;5072107;28;20033;-76
2023/10/06 05:06:21;;;;;;;8.88;5.60;;;;;;;10.45;100.00;102143.63;5071068;28;20468;-76
2023/10/06 05:08:48;;;;;;;9.75;5.65;;;;;;;10.43;100.00;102142.94;5073977;28;20025;-77
2023/10/06 05:11:15;;;;;;;7.93;5.40;;;;;;;10.38;100.00;102146.13;5073268;28;20032;-76
2023/10/06 05:14:16;;;;;;;8.88;5.47;;;;;;;10.41;100.00;102140.38;5056487;28;20048;-77
2023/10/06 05:16:42;;;;;;;8.65;5.13;;;;;;;10.42;100.00;102133.16;5063457;28;20108;-77
2023/10/06 05:19:07;;;;;;;8.90;5.20;;;;;;;10.41;100.00;102137.69;5074244;28;20463;-77
2023/10/06 05:21:36;;;;;;;10.65;5.15;;;;;;;10.42;100.00;102134.00;5069875;28;20040;-77
2023/10/06 05:24:01;;;;;;;7.57;5.20;;;;;;;10.44;100.00;102131.16;5055801;28;20040;-77
2023/10/06 05:26:32;;;;;;;9.15;4.85;;;;;;;10.37;100.00;102135.47;5078085;28;20029;-77
2023/10/06 05:28:58;;;;;;;8.55;4.82;;;;;;;10.34;100.00;102128.59;5083906;28;20048;-77
2023/10/06 05:31:23;;;;;;;7.40;5.25;;;;;;;10.36;100.00;102114.94;5076637;28;20016;-78
2023/10/06 05:33:51;;;;;;;7.70;4.85;;;;;;;10.36;100.00;102118.50;5079811;28;20134;-78
2023/10/06 05:36:16;;;;;;;7.80;4.78;;;;;;;10.42;100.00;102117.84;5074067;28;20041;-78
2023/10/06 05:38:42;;;;;;;7.07;4.72;;;;;;;10.39;100.00;102110.13;5055675;28;20555;-77
2023/10/06 05:41:15;;;;;;;9.00;5.03;;;;;;;10.41;100.00;102116.16;5066441;28;20029;-78
2023/10/06 05:43:40;;;;;;;9.63;4.80;;;;;;;10.41;100.00;102115.34;5070438;28;20078;-77
2023/10/06 05:46:05;;;;;;;8.60;4.63;;;;;;;10.41;100.00;102118.84;5082725;28;20052;-78
2023/10/06 05:52:10;;;;;;;9.52;4.78;;;;;;;10.54;100.00;102115.69;5068955;22;20118;-78
2023/10/06 05:54:37;;;;;;;6.50;4.63;;;;;;;10.59;100.00;102115.22;5067652;28;20143;-78
2023/10/06 05:57:04;;;;;;;7.70;4.53;;;;;;;10.59;100.00;102123.28;5052657;28;20028;-79
2023/10/06 05:59:42;;;;;;;9.93;4.70;;;;;;;10.62;100.00;102120.25;5074623;28;20024;-79
2023/10/06 06:05:33;;;;;;;7.88;4.40;;;;;;;10.71;100.00;102130.03;5548856;22;20056;-76
2023/10/06 06:08:09;;;;;;;7.30;4.90;;;;;;;10.77;100.00;102137.44;5087829;28;20031;-77
2023/10/06 06:10:55;;;;;;;9.52;5.30;;;;;;;10.90;100.00;102136.13;5087466;28;20119;-77
2023/10/06 06:13:20;;;;;;;14.73;6.03;;;;;;;11.15;100.00;102138.81;5078719;28;20042;-78
2023/10/06 06:15:49;;;;;;;8.40;5.20;;;;;;;11.60;98.87;102125.75;5089870;28;20024;-78
2023/10/06 06:18:15;;;;;;;7.25;5.03;;;;;;;12.03;95.58;102120.94;5071882;28;20395;-79
2023/10/06 06:23:46;;;;;;;7.03;5.05;;;;;;;12.66;91.76;102122.78;5089447;28;20050;-78
2023/10/06 06:26:12;;;;;;;10.05;4.95;;;;;;;12.90;89.84;102127.16;5082368;28;20077;-81
2023/10/06 06:28:43;;;;;;;8.43;4.68;;;;;;;13.07;88.11;102122.44;5096427;28;20110;-75
2023/10/06 06:34:38;;;;;;;6.90;4.45;;;;;;;12.62;89.28;102134.97;5058131;28;20065;-77
2023/10/06 06:37:04;;;;;;;9.32;4.30;;;;;;;12.79;89.60;102125.72;5093081;28;20476;-76
2023/10/06 06:39:33;;;;;;;8.82;4.18;;;;;;;13.36;86.65;102118.16;5091139;28;20409;-77
2023/10/06 06:42:03;;;;;;;7.95;4.30;;;;;;;14.40;80.88;102138.06;5089584;28;20054;-77
2023/10/06 06:44:30;;;;;;;9.23;4.15;;;;;;;14.51;78.58;102139.44;5083746;28;20024;-75
2023/10/06 06:46:58;;;;;;;7.68;3.72;;;;;;;14.89;77.11;102144.66;5087821;28;20029;-75
2023/10/06 06:49:24;;;;;;;4.53;3.78;;;;;;;14.80;76.90;102149.38;5089671;28;20039;-75
2023/10/06 06:51:53;;;;;;;6.50;4.20;;;;;;;14.54;78.42;102139.06;5088154;28;20028;-75
2023/10/06 06:54:19;;;;;;;9.25;4.32;;;;;;;14.65;78.26;102143.97;5089998;28;20119;-75
2023/10/06 06:56:48;;;;;;;7.72;4.05;;;;;;;14.98;76.37;102145.38;5088836;28;20028;-76
2023/10/06 06:59:13;;;;;;;6.85;4.18;;;;;;;15.08;75.46;102136.91;5070752;28;20097;-76
2023/10/06 07:01:39;;;;;;;7.38;3.92;;;;;;;14.96;76.36;102142.88;5056659;28;20468;-76
2023/10/06 07:04:08;;;;;;;7.43;3.50;;;;;;;14.60;77.35;102143.75;5090859;28;20050;-76
2023/10/06 07:06:35;;;;;;;8.35;4.10;;;;;;;14.38;78.75;102132.88;5089940;28;20028;-77
2023/10/06 07:09:00;;;;;;;8.60;4.10;;;;;;;14.04;79.81;102133.47;5092400;28;20098;-75
2023/10/06 07:11:28;;;;;;;8.30;3.75;;;;;;;13.96;80.64;102110.06;5097768;28;20021;-76
2023/10/06 07:13:56;;;;;;;8.65;4.00;;;;;;;13.97;81.23;102133.38;5088873;28;20024;-76
2023/10/06 07:16:24;;;;;;;5.15;3.40;;;;;;;14.14;80.44;102134.03;5071101;28;20465;-76
2023/10/06 07:18:50;;;;;;;8.95;4.13;;;;;;;14.20;79.88;102127.88;5082646;28;20020;-77
2023/10/06 07:21:49;;;;;;;8.45;3.70;;;;;;;14.33;79.76;102143.41;5082022;28;20027;-77
2023/10/06 07:24:24;;;;;;;9.15;3.90;;;;;;;14.19;79.25;102131.59;5013108;28;20046;-76
2023/10/06 07:27:08;;;;;;;8.25;3.80;;;;;;;13.92;80.25;102152.09;5081670;28;20028;-77
2023/10/06 07:30:22;;;;;;;9.07;4.10;;;;;;;13.86;80.83;102142.00;5074905;28;20040;-77
2023/10/06 07:32:51;;;;;;;8.75;3.92;;;;;;;13.78;81.44;102134.81;5084481;28;20052;-77
2023/10/06 07:35:47;;;;;;;10.68;4.22;;;;;;;13.60;81.93;102137.88;5089107;28;20024;-77
2023/10/06 07:38:14;;;;;;;8.90;3.80;;;;;;;13.75;82.53;102146.88;5082617;28;20106;-77
2023/10/06 07:40:42;;;;;;;7.82;3.97;;;;;;;13.60;82.44;102148.69;5092809;28;20024;-77
2023/10/06 07:43:09;;;;;;;7.70;3.92;;;;;;;13.93;81.33;102157.31;5082274;28;20028;-77
2023/10/06 07:45:36;;;;;;;6.25;3.78;;;;;;;14.02;80.31;102160.75;5083286;28;20558;-77
2023/10/06 07:48:05;;;;;;;6.30;3.53;;;;;;;14.25;80.12;102163.34;5082923;28;20109;-76
2023/10/06 07:50:33;;;;;;;7.28;3.80;;;;;;;14.85;77.16;102173.19;5092762;28;20028;-77
2023/10/06 07:52:58;;;;;;;12.25;4.15;;;;;;;15.42;75.07;102184.16;5093184;28;20084;-77
2023/10/06 07:55:27;;;;;;;7.30;3.70;;;;;;;16.48;70.05;102174.94;5101662;28;20034;-77
2023/10/06 07:57:53;;;;;;;7.05;4.00;;;;;;;16.80;68.58;102191.56;5077254;28;20051;-77
2023/10/06 08:00:28;;;;;;;6.25;3.83;;;;;;;18.31;62.99;102182.88;5092424;28;20024;-77
2023/10/06 08:02:54;;;;;;;6.85;3.47;;;;;;;18.53;62.19;102179.00;5090091;28;20187;-78
2023/10/06 08:05:20;;;;;;;7.35;3.90;;;;;;;18.90;60.53;102185.47;5090563;28;20048;-77
2023/10/06 08:07:45;;;;;;;5.93;3.47;;;;;;;19.55;57.32;102180.78;5089247;28;20027;-77
2023/10/06 08:10:14;;;;;;;8.55;4.18;;;;;;;19.10;58.78;102181.81;5092269;28;20020;-77
2023/10/06 08:12:47;;;;;;;6.40;3.58;;;;;;;18.59;59.81;102170.78;5088962;28;20464;-77
2023/10/06 08:15:17;;;;;;;6.82;3.92;;;;;;;18.24;61.95;102160.25;5082349;28;20105;-77
2023/10/06 08:17:45;;;;;;;7.20;4.10;;;;;;;18.71;61.11;102160.00;5089075;28;20035;-75
2023/10/06 08:20:12;;;;;;;8.32;3.80;;;;;;;18.71;60.24;102157.28;5086018;28;20028;-75
2023/10/06 08:22:38;;;;;;;8.30;4.28;;;;;;;18.88;59.82;102157.59;5084578;28;20051;-76
2023/10/06 08:25:05;;;;;;;8.25;4.45;;;;;;;18.22;61.33;102156.91;5090932;28;20027;-77
2023/10/06 08:27:35;;;;;;;6.65;3.97;;;;;;;19.05;58.97;102165.28;5090103;28;20494;-76
2023/10/06 08:30:16;;;;;;;7.50;4.20;;;;;;;18.61;60.09;102168.66;5087050;28;20070;-77
2023/10/06 08:32:47;;;;;;;9.20;4.32;;;;;;;18.51;61.57;102173.78;5068733;28;20028;-75
2023/10/06 08:35:13;;;;;;;6.13;4.10;;;;;;;18.88;60.02;102160.34;5089340;28;20099;-75
2023/10/06 08:37:43;;;;;;;8.15;3.92;;;;;;;20.08;56.77;102168.50;5089422;28;20051;-76
2023/10/06 08:40:16;;;;;;;6.70;3.72;;;;;;;20.07;55.09;102160.50;5090805;28;20020;-77
2023/10/06 08:42:56;;;;;;;7.72;3.60;;;;;;;19.65;57.71;102151.06;5089832;28;20111;-77
2023/10/06 08:45:28;;;;;;;6.72;3.58;;;;;;;19.29;58.73;102160.03;5070048;28;20028;-76
2023/10/06 08:48:01;;;;;;;6.78;4.10;;;;;;;18.72;60.43;102148.03;5088308;28;20414;-76
2023/10/06 08:50:32;;;;;;;7.63;3.92;;;;;;;17.66;63.71;102140.06;5086368;28;20025;-77
2023/10/06 08:52:59;;;;;;;8.65;4.15;;;;;;;17.34;65.86;102150.81;5088689;28;20031;-77
2023/10/06 08:55:30;;;;;;;8.02;4.40;;;;;;;17.61;64.85;102155.38;5091023;28;20407;-75
2023/10/06 08:57:58;;;;;;;10.77;4.30;;;;;;;17.40;65.51;102149.97;5090988;28;20151;-77
2023/10/06 09:00:24;;;;;;;8.73;4.20;;;;;;;18.75;62.07;102152.22;5091157;28;20024;-77
2023/10/06 09:02:51;;;;;;;11.63;4.03;;;;;;;18.84;61.16;102150.06;5086152;28;20047;-77
2023/10/06 09:05:17;;;;;;;9.20;4.32;;;;;;;19.18;60.18;102151.50;5085169;28;20049;-77
2023/10/06 09:08:06;;;;;;;8.40;4.00;;;;;;;18.75;61.59;102152.22;5090390;28;20028;-77
2023/10/06 09:10:33;;;;;;;10.07;3.80;;;;;;;18.40;63.03;102160.81;5091961;28;20054;-77
2023/10/06 09:13:10;;;;;;;9.13;4.00;;;;;;;17.78;64.79;102147.63;5089150;28;20126;-77
2023/10/06 09:15:36;;;;;;;8.30;4.53;;;;;;;17.83;64.66;102151.38;5091140;28;20031;-77
2023/10/06 09:18:18;;;;;;;8.75;4.25;;;;;;;17.85;64.72;102149.25;5091587;28;20529;-77
2023/10/06 09:20:45;;;;;;;7.50;3.90;;;;;;;18.04;65.04;102154.91;5090297;28;20108;-76
2023/10/06 09:23:11;;;;;;;7.82;4.20;;;;;;;18.89;62.32;102147.50;5089858;28;20036;-77
2023/10/06 09:25:45;;;;;;;9.38;4.30;;;;;;;18.70;62.42;102149.34;5077031;28;20025;-77
2023/10/06 09:28:13;;;;;;;9.05;3.95;;;;;;;18.11;64.17;102147.50;5085622;28;20027;-76
2023/10/06 09:30:56;;;;;;;9.55;4.38;;;;;;;18.20;63.71;102142.66;5093239;28;20032;-77
2023/10/06 09:33:24;;;;;;;10.63;4.43;;;;;;;18.24;64.41;102135.72;5091268;28;20028;-76
2023/10/06 09:36:07;;;;;;;10.45;4.68;;;;;;;18.32;64.10;102143.66;5072340;28;20384;-76
2023/10/06 09:41:01;;;;;;;9.93;4.20;;;;;;;18.09;65.00;102125.09;5088872;28;20480;-76
2023/10/06 09:43:35;;;;;;;8.50;4.18;;;;;;;17.90;65.99;102123.28;5092770;28;20104;-75
2023/10/06 09:49:32;;;;;;;10.80;4.28;;;;;;;17.77;66.51;102111.34;5049871;28;20044;-75
2023/10/06 09:55:04;;;;;;;7.15;4.18;;;;;;;17.90;65.90;102101.47;5078024;22;20458;-76
2023/10/06 09:57:31;;;;;;;11.10;4.18;;;;;;;17.95;66.55;102127.03;5040211;28;20028;-76
2023/10/06 09:59:57;;;;;;;9.02;4.40;;;;;;;17.63;67.85;102129.63;5061821;28;20021;-75
2023/10/06 10:02:32;;;;;;;9.80;4.30;;;;;;;18.51;65.62;102124.69;5065967;28;20024;-76
2023/10/06 10:05:01;;;;;;;9.57;4.90;;;;;;;18.99;63.46;102114.31;5066793;28;20040;-76
2023/10/06 10:10:12;;;;;;;9.93;4.28;;;;;;;19.57;61.42;102110.38;5390889;22;20075;-75
2023/10/06 10:13:00;;;;;;;;;;;;;;;19.45;61.58;102112.19;5053509;28;20036;-75
2023/10/06 10:15:44;;;;;;;6.78;4.20;;;;;;;18.91;63.69;102112.66;5070645;28;20263;-75
2023/10/06 10:18:49;;;;;;;10.68;4.55;;;;;;;19.36;62.96;102117.13;5070331;28;20044;-75
2023/10/06 10:21:14;;;;;;;9.38;4.43;;;;;;;19.09;63.01;102120.09;5056161;28;20512;-76
2023/10/06 10:23:43;;;;;;;11.55;4.78;;;;;;;18.68;65.74;102113.25;5071781;28;20024;-75
2023/10/06 10:26:27;;;;;;;9.77;4.57;;;;;;;18.71;65.98;102112.81;5089941;22;20507;-75
2023/10/06 10:29:18;;;;;;;9.82;4.97;;;;;;;18.48;66.40;102104.13;5039217;28;20082;-75
2023/10/06 10:31:56;;;;;;;9.57;4.70;;;;;;;18.72;65.51;102092.63;5090735;28;20047;-77
2023/10/06 10:34:25;;;;;;;9.05;4.68;;;;;;;18.63;67.01;102100.25;5086295;28;20040;-77
2023/10/06 10:39:25;;;;;;;8.70;4.47;;;;;;;18.60;67.22;102096.09;5086092;22;20325;-77
2023/10/06 10:42:10;;;;;;;10.05;4.88;;;;;;;18.75;66.29;102086.75;5512214;22;20059;-77
2023/10/06 10:50:48;;;;;;;8.30;4.75;;;;;;;18.46;67.71;102083.59;5874186;22;20056;-77
2023/10/06 10:53:22;;;;;;;10.05;3.83;;;;;;;18.79;66.40;102087.97;5074191;28;20120;-76
2023/10/06 10:55:47;;;;;;;9.90;4.13;;;;;;;18.67;67.14;102073.41;5089421;28;20047;-76
2023/10/06 11:15:49;;;;;;;7.10;3.78;;;;;;;20.17;61.33;102069.75;5086245;22;20060;-76
2023/10/06 11:18:42;;;;;;;8.10;3.40;;;;;;;20.42;61.23;102072.31;5061194;28;20112;-76
2023/10/06 11:21:57;;;;;;;7.63;3.47;;;;;;;20.16;60.33;102063.44;5076762;28;20034;-76
2023/10/06 11:28:16;;;;;;;6.00;3.50;;;;;;;19.87;61.22;102044.06;5095062;28;20043;-76
2023/10/06 11:30:46;;;;;;;;;;;;;;;19.92;61.62;102057.88;5096244;28;20030;-76
2023/10/06 11:33:37;;;;;;;8.13;4.18;;;;;;;19.71;62.53;102064.63;5093248;28;19923;-76
2023/10/06 11:45:32;;;;;;;7.45;3.22;;;;;;;18.92;67.19;102052.38;5591726;22;20423;-76
2023/10/06 11:48:03;;;;;;;8.00;3.67;;;;;;;19.31;64.82;102045.97;5093586;28;20028;-77
2023/10/06 11:50:32;;;;;;;8.57;3.78;;;;;;;19.56;64.70;102058.72;5093859;28;20039;-77
2023/10/06 11:53:23;;;;;;;8.45;3.03;;;;;;;20.23;62.46;102058.72;5086795;28;20016;-75
2023/10/06 11:55:49;;;;;;;5.63;2.95;;;;;;;21.09;58.31;102045.78;5092070;28;20027;-75
2023/10/06 11:58:14;;;;;;;9.05;3.15;;;;;;;21.33;57.09;102055.66;5074499;28;20081;-75
2023/10/06 12:00:45;;;;;;;6.15;2.83;;;;;;;21.63;55.89;102049.19;5056374;28;20043;-75
2023/10/06 12:03:16;;;;;;;6.65;2.67;;;;;;;21.80;55.15;102051.97;5087716;28;20035;-75
2023/10/06 12:05:53;;;;;;;6.57;2.85;;;;;;;22.36;52.71;102043.16;5091268;28;20032;-75
2023/10/06 12:08:19;;;;;;;5.60;2.85;;;;;;;22.97;50.83;102027.94;5086512;28;20081;-74
2023/10/06 12:10:47;;;;;;;5.07;2.90;;;;;;;22.07;52.64;102014.91;5074397;28;20043;-74
2023/10/06 12:13:12;;;;;;;6.53;3.03;;;;;;;22.37;53.00;102025.59;5093183;28;20048;-74
2023/10/06 12:15:38;;;;;;;8.10;3.30;;;;;;;22.95;51.67;102032.84;5089169;28;20063;-74
2023/10/06 12:18:04;;;;;;;5.45;2.58;;;;;;;23.41;50.17;102016.19;5091401;28;20035;-76
2023/10/06 12:20:29;;;;;;;6.55;3.20;;;;;;;23.41;49.84;102017.06;5089792;28;20031;-74
2023/10/06 12:22:55;;;;;;;5.80;2.90;;;;;;;23.71;49.30;102010.25;5098192;28;20032;-74
2023/10/06 12:25:23;;;;;;;8.23;2.78;;;;;;;23.83;49.64;102012.03;5093578;28;20024;-76
2023/10/06 12:27:48;;;;;;;7.65;2.95;;;;;;;23.19;50.31;102024.41;5084822;28;20048;-75
2023/10/06 12:30:16;;;;;;;6.68;3.10;;;;;;;23.30;50.90;102023.47;5080889;28;20036;-75
2023/10/06 12:32:45;;;;;;;7.10;3.08;;;;;;;23.59;49.19;102026.88;5088013;28;20097;-75
2023/10/06 12:35:18;;;;;;;8.23;2.90;;;;;;;23.73;49.64;102026.50;5082314;28;20048;-74
2023/10/06 12:37:46;;;;;;;6.90;3.28;;;;;;;22.32;52.24;102025.53;5090540;28;20081;-75
2023/10/06 12:40:15;;;;;;;4.78;2.83;;;;;;;21.86;54.06;102024.69;5074276;28;20613;-75
2023/10/06 12:42:44;;;;;;;5.78;2.97;;;;;;;21.72;55.09;102007.69;5093391;28;20103;-75
2023/10/06 12:45:17;;;;;;;5.60;2.85;;;;;;;21.70;55.53;102009.88;5084131;28;20044;-75
2023/10/06 12:47:49;;;;;;;6.40;3.25;;;;;;;21.53;56.19;102010.59;5088347;28;20063;-75
2023/10/06 12:50:18;;;;;;;7.40;3.13;;;;;;;20.51;57.95;102009.91;5074549;28;20021;-75
2023/10/06 12:52:55;;;;;;;7.95;3.13;;;;;;;20.32;57.09;102000.97;5081168;28;20092;-75
2023/10/06 12:55:24;;;;;;;7.90;2.90;;;;;;;20.20;58.55;101998.19;5090767;28;20101;-75
2023/10/06 12:57:50;;;;;;;11.18;3.50;;;;;;;19.84;59.78;102004.34;5088001;28;20503;-74
2023/10/06 13:00:16;;;;;;;5.65;3.13;;;;;;;19.82;60.21;102003.75;5092263;28;20047;-75